Time;durP1;ratioP1;P1;durP2;ratioP2;P2;SDS_P1;SDS_P2;PMS_P1;PMS_P2;Temp;Humidity;BMP_temperature;BMP_pressure;BME280_temperature;BME280_humidity;BME280_pressure;Samples;Min_cycle;Max_cycle;Signal;HPM_P1;HPM_P2
2022/01/23 00:00:55;;;;;;;74.22;36.45;;;6.70;75.00;;;;;;5085236;28;20437;-74
2022/01/23 00:03:31;;;;;;;71.22;33.60;;;6.60;77.10;;;;;;5082708;28;20386;-74
2022/01/23 00:05:57;;;;;;;80.13;36.85;;;6.50;77.60;;;;;;5058911;28;20395;-74
2022/01/23 00:08:24;;;;;;;74.57;36.67;;;6.50;79.10;;;;;;5063711;28;20428;-75
2022/01/23 00:10:55;;;;;;;82.75;39.88;;;6.50;80.20;;;;;;5068300;28;20397;-73
2022/01/23 00:13:28;;;;;;;73.20;37.38;;;6.50;81.00;;;;;;5073303;28;20380;-76
2022/01/23 00:18:53;;;;;;;78.45;36.83;;;6.60;79.50;;;;;;5053705;28;20451;-74
2022/01/23 00:21:24;;;;;;;76.53;37.53;;;6.60;78.50;;;;;;5047301;28;20392;-74
2022/01/23 00:32:12;;;;;;;84.32;41.55;;;6.40;81.60;;;;;;5068544;28;20379;-74
2022/01/23 00:34:46;;;;;;;78.97;39.63;;;6.30;84.90;;;;;;5057246;28;20412;-73
2022/01/23 00:37:22;;;;;;;82.00;37.90;;;6.60;83.10;;;;;;5050295;28;20444;-72
2022/01/23 00:39:55;;;;;;;78.50;38.23;;;6.70;78.80;;;;;;5070807;28;20601;-73
2022/01/23 00:42:22;;;;;;;84.07;40.42;;;6.60;79.70;;;;;;5070630;28;20392;-74
2022/01/23 00:45:03;;;;;;;82.33;39.87;;;6.50;82.50;;;;;;5051925;28;20386;-74
2022/01/23 00:47:31;;;;;;;81.85;41.90;;;6.30;86.20;;;;;;5088675;28;20390;-74
2022/01/23 00:50:02;;;;;;;84.45;41.30;;;6.30;87.60;;;;;;5086912;28;20447;-73
2022/01/23 00:52:40;;;;;;;81.75;42.05;;;6.30;87.90;;;;;;5070756;28;20412;-72
2022/01/23 00:55:08;;;;;;;81.20;40.97;;;6.20;88.20;;;;;;5077853;28;20766;-74
2022/01/23 00:57:34;;;;;;;84.30;41.97;;;6.20;88.30;;;;;;5056279;28;20396;-73
2022/01/23 01:00:19;;;;;;;78.75;41.15;;;6.20;87.90;;;;;;5071071;28;20466;-73
2022/01/23 01:02:55;;;;;;;85.63;42.50;;;6.20;87.90;;;;;;5067646;28;20753;-74
2022/01/23 01:05:32;;;;;;;81.68;40.65;;;6.20;88.50;;;;;;5068302;28;20457;-73
2022/01/23 01:08:18;;;;;;;86.20;41.70;;;6.20;87.90;;;;;;5050087;28;20385;-75
2022/01/23 01:30:43;;;;;;;78.65;40.40;;;6.40;84.30;;;;;;5070618;28;20424;-75
2022/01/23 01:33:27;;;;;;;77.17;40.37;;;6.60;85.40;;;;;;5071243;28;20386;-74
2022/01/23 01:35:59;;;;;;;75.97;38.05;;;6.80;80.90;;;;;;5071411;28;20745;-73
2022/01/23 01:38:24;;;;;;;71.03;39.13;;;6.80;78.60;;;;;;5070899;28;20712;-73
2022/01/23 01:40:51;;;;;;;77.60;39.95;;;6.80;76.70;;;;;;5069680;28;20394;-74
2022/01/23 01:43:16;;;;;;;77.43;39.08;;;6.70;79.60;;;;;;5069256;28;20391;-73
2022/01/23 01:45:42;;;;;;;80.22;41.20;;;6.50;81.10;;;;;;5082319;28;20390;-74
2022/01/23 01:48:09;;;;;;;77.40;38.63;;;6.40;84.90;;;;;;5091178;28;20378;-73
2022/01/23 01:50:42;;;;;;;75.55;38.90;;;6.70;80.40;;;;;;5092558;28;20385;-74
2022/01/23 01:53:10;;;;;;;78.72;40.33;;;6.80;77.20;;;;;;5073809;28;20381;-74
2022/01/23 01:55:41;;;;;;;79.63;40.42;;;6.60;79.80;;;;;;5065087;28;20410;-73
2022/01/23 01:58:13;;;;;;;82.88;41.40;;;6.50;80.80;;;;;;5092095;28;20399;-73
2022/01/23 02:08:23;;;;;;;79.38;40.03;;;6.30;85.40;;;;;;5091309;28;20395;-73
2022/01/23 02:10:53;;;;;;;75.60;40.70;;;6.20;85.80;;;;;;5081044;28;20396;-74
2022/01/23 02:13:29;;;;;;;74.77;39.23;;;6.20;86.40;;;;;;5070677;28;20440;-73
2022/01/23 02:56:45;;;;;;;76.68;38.85;;;6.20;86.30;;;;;;5064978;28;20467;-73
2022/01/23 02:59:19;;;;;;;70.53;38.15;;;6.20;87.00;;;;;;5054911;28;20412;-73
2022/01/23 03:04:32;;;;;;;73.57;38.10;;;6.30;84.00;;;;;;5066657;28;20454;-73
2022/01/23 03:10:17;;;;;;;75.90;38.57;;;6.30;84.10;;;;;;5075212;28;20912;-76
2022/01/23 03:12:58;;;;;;;72.47;38.75;;;6.40;83.10;;;;;;5061405;28;20875;-73
2022/01/23 03:15:13;;;;;;;73.45;38.20;;;6.30;83.90;;;;;;5054642;28;21000;-73
2022/01/23 03:28:36;;;;;;;79.73;40.20;;;6.10;88.50;;;;;;5087034;28;20419;-73
2022/01/23 03:31:19;;;;;;;73.43;39.40;;;6.10;88.20;;;;;;5073269;28;20752;-74
2022/01/23 03:33:45;;;;;;;71.97;38.78;;;6.40;84.30;;;;;;5072993;28;20385;-74
2022/01/23 03:36:10;;;;;;;70.68;37.20;;;6.30;83.90;;;;;;5074389;28;20414;-74
2022/01/23 03:38:36;;;;;;;69.10;36.73;;;6.30;82.50;;;;;;5094139;28;20467;-73
2022/01/23 03:41:02;;;;;;;78.87;40.67;;;6.30;82.40;;;;;;5093076;28;20626;-73
2022/01/23 03:43:31;;;;;;;75.03;38.53;;;6.20;84.80;;;;;;5112516;28;20477;-74
2022/01/23 03:51:14;;;;;;;69.30;37.55;;;6.30;86.40;;;;;;5068256;28;20896;-74
2022/01/23 03:53:40;;;;;;;66.90;36.70;;;6.30;85.30;;;;;;5074563;28;20468;-73
2022/01/23 03:56:07;;;;;;;70.03;38.33;;;6.50;81.90;;;;;;5082274;28;20399;-74
2022/01/23 03:58:33;;;;;;;78.28;38.45;;;6.30;83.30;;;;;;5093741;28;20389;-74
2022/01/23 04:00:59;;;;;;;69.32;38.47;;;6.20;87.30;;;;;;5072554;28;20393;-74
2022/01/23 04:03:25;;;;;;;72.93;36.33;;;6.40;85.50;;;;;;5055649;28;20863;-74
2022/01/23 04:05:51;;;;;;;71.77;37.07;;;6.70;79.90;;;;;;5067612;28;20398;-74
2022/01/23 04:08:18;;;;;;;69.88;37.45;;;6.80;76.90;;;;;;5103898;28;20386;-74
2022/01/23 04:10:44;;;;;;;73.78;39.28;;;6.70;78.00;;;;;;5080248;28;20395;-73
2022/01/23 04:13:29;;;;;;;68.93;36.72;;;6.60;78.90;;;;;;5068667;28;20421;-74
2022/01/23 04:16:15;;;;;;;71.75;37.83;;;6.50;83.30;;;;;;5058468;28;20413;-74
2022/01/23 04:19:10;;;;;;;73.15;38.20;;;6.50;84.10;;;;;;5086862;28;20514;-74
2022/01/23 04:35:20;;;;;;;67.73;37.57;;;6.10;91.50;;;;;;5052983;28;20957;-74
2022/01/23 04:46:28;;;;;;;76.88;41.58;;;6.80;82.00;;;;;;5062801;28;20392;-74
2022/01/23 04:59:30;;;;;;;72.90;38.10;;;6.60;79.20;;;;;;5092176;28;20393;-74
2022/01/23 05:00:08;;;;;;;64.05;34.60;;;6.90;73.30;;;;;;5037379;28;20456;-75
2022/01/23 05:05:21;;;;;;;60.75;33.00;;;6.60;81.20;;;;;;5084087;28;20391;-75
2022/01/23 05:07:47;;;;;;;67.90;35.03;;;6.90;75.10;;;;;;5071793;28;20384;-73
2022/01/23 05:10:16;;;;;;;65.85;34.75;;;6.60;76.30;;;;;;5069452;28;20396;-74
2022/01/23 05:12:53;;;;;;;62.65;33.92;;;6.70;79.60;;;;;;5066973;28;20393;-74
2022/01/23 05:15:18;;;;;;;65.63;33.97;;;6.70;77.30;;;;;;5056622;28;20394;-73
2022/01/23 05:17:55;;;;;;;68.13;34.97;;;6.50;82.70;;;;;;5052614;28;20391;-73
2022/01/23 05:20:25;;;;;;;70.15;35.78;;;6.60;81.40;;;;;;5051804;28;20477;-73
2022/01/23 05:22:58;;;;;;;71.75;36.38;;;6.40;83.00;;;;;;5052707;28;20369;-73
2022/01/23 05:25:28;;;;;;;75.50;37.95;;;6.30;85.30;;;;;;5036210;28;20417;-73
2022/01/23 05:27:56;;;;;;;76.80;37.83;;;6.20;87.20;;;;;;5064905;28;20377;-73
2022/01/23 05:30:23;;;;;;;70.32;36.80;;;6.10;88.90;;;;;;5052762;28;20446;-72
2022/01/23 05:33:02;;;;;;;67.73;37.00;;;6.10;90.20;;;;;;5053700;28;20505;-73
2022/01/23 05:35:31;;;;;;;70.50;35.50;;;6.10;92.00;;;;;;5053271;28;20378;-74
2022/01/23 05:37:58;;;;;;;64.95;36.40;;;6.10;93.10;;;;;;5071295;28;20885;-73
2022/01/23 05:40:28;;;;;;;71.75;37.38;;;6.20;93.80;;;;;;5052032;28;20442;-73
2022/01/23 05:42:56;;;;;;;73.53;36.92;;;6.30;93.40;;;;;;5030358;28;20397;-73
2022/01/23 05:45:22;;;;;;;69.63;35.20;;;6.30;92.30;;;;;;5035176;28;20381;-74
2022/01/23 05:47:47;;;;;;;70.57;36.07;;;6.20;91.40;;;;;;5066704;28;20744;-74
2022/01/23 05:50:13;;;;;;;65.83;34.20;;;6.20;91.50;;;;;;5060947;28;20595;-72
2022/01/23 05:52:38;;;;;;;62.57;33.67;;;6.20;93.20;;;;;;5064314;28;20466;-72
2022/01/23 05:55:05;;;;;;;62.92;34.65;;;6.60;85.70;;;;;;5058939;28;20488;-73
2022/01/23 05:57:34;;;;;;;66.15;36.90;;;6.60;84.00;;;;;;5050812;28;20413;-73
2022/01/23 06:00:05;;;;;;;66.93;35.10;;;6.50;84.30;;;;;;5033513;28;20460;-73
2022/01/23 06:02:31;;;;;;;68.85;36.65;;;6.40;86.50;;;;;;5047026;28;20423;-73
2022/01/23 06:04:57;;;;;;;71.47;37.30;;;6.40;85.70;;;;;;5053185;28;20531;-72
2022/01/23 06:07:23;;;;;;;69.85;37.53;;;6.30;85.40;;;;;;5052575;28;21032;-73
2022/01/23 06:09:51;;;;;;;64.70;34.92;;;6.30;87.10;;;;;;5032876;28;20405;-73
2022/01/23 06:12:20;;;;;;;64.97;35.85;;;6.40;88.00;;;;;;5054040;28;20395;-73
2022/01/23 06:14:47;;;;;;;68.28;37.42;;;6.50;88.20;;;;;;5036722;28;20393;-74
2022/01/23 06:17:13;;;;;;;66.72;37.03;;;7.20;87.90;;;;;;5069477;28;20496;-74
2022/01/23 06:19:39;;;;;;;66.13;36.97;;;6.50;87.10;;;;;;5043732;28;20844;-74
2022/01/23 06:22:05;;;;;;;69.32;36.83;;;6.50;86.20;;;;;;5040683;28;20388;-73
2022/01/23 06:24:32;;;;;;;71.72;35.95;;;6.50;86.70;;;;;;5052919;28;20848;-73
2022/01/23 06:26:59;;;;;;;70.28;37.10;;;6.50;86.60;;;;;;5045462;28;20397;-74
2022/01/23 06:29:30;;;;;;;72.07;36.22;;;6.50;84.40;;;;;;5045327;28;20397;-73
2022/01/23 06:31:58;;;;;;;74.28;36.05;;;6.40;84.00;;;;;;5024851;28;20482;-74
2022/01/23 06:34:27;;;;;;;73.43;36.80;;;6.40;85.10;;;;;;5043502;28;20535;-73
2022/01/23 06:36:54;;;;;;;69.78;37.95;;;6.40;85.80;;;;;;5069077;28;20393;-73
2022/01/23 06:39:21;;;;;;;72.60;36.22;;;6.80;86.20;;;;;;5050416;28;20471;-74
2022/01/23 06:41:46;;;;;;;75.03;38.65;;;6.60;86.70;;;;;;5029012;28;20387;-75
2022/01/23 06:44:12;;;;;;;71.13;37.50;;;6.60;82.00;;;;;;5054625;28;20402;-74
2022/01/23 06:46:41;;;;;;;72.22;37.47;;;7.10;83.60;;;;;;5032718;28;20378;-75
2022/01/23 06:49:09;;;;;;;73.88;37.38;;;6.50;83.50;;;;;;5032737;28;20720;-74
2022/01/23 06:51:35;;;;;;;68.13;36.28;;;6.60;84.40;;;;;;5032754;28;20390;-74
2022/01/23 06:54:01;;;;;;;69.38;35.47;;;6.90;77.50;;;;;;5031948;28;20390;-74
2022/01/23 06:56:27;;;;;;;68.10;37.50;;;7.10;73.10;;;;;;5018734;28;20403;-74
2022/01/23 06:58:54;;;;;;;72.22;37.13;;;6.80;76.60;;;;;;5060366;28;20385;-75
2022/01/23 07:01:21;;;;;;;66.57;38.40;;;6.50;79.40;;;;;;5011945;28;20490;-74
2022/01/23 07:03:47;;;;;;;71.35;39.03;;;6.50;81.90;;;;;;5031717;28;20399;-74
2022/01/23 07:06:12;;;;;;;76.32;38.17;;;6.40;83.70;;;;;;5031602;28;20455;-73
2022/01/23 07:08:38;;;;;;;71.47;37.53;;;6.40;85.10;;;;;;5032253;28;20394;-73
2022/01/23 07:11:03;;;;;;;74.53;37.90;;;6.50;86.70;;;;;;5049274;28;20475;-73
2022/01/23 07:13:29;;;;;;;67.93;36.88;;;6.50;86.60;;;;;;5046370;28;20397;-72
2022/01/23 07:15:55;;;;;;;69.07;38.07;;;6.50;85.10;;;;;;5048735;28;20531;-73
2022/01/23 07:18:21;;;;;;;72.53;38.30;;;6.50;84.00;;;;;;5048957;28;20483;-73
2022/01/23 07:20:47;;;;;;;70.15;38.28;;;6.50;83.90;;;;;;5045547;28;20789;-73
2022/01/23 07:23:13;;;;;;;73.50;38.40;;;6.50;84.60;;;;;;5061677;28;20384;-73
2022/01/23 07:25:41;;;;;;;71.53;38.97;;;6.40;85.50;;;;;;5054532;28;20729;-73
2022/01/23 07:28:11;;;;;;;77.13;41.00;;;6.50;86.00;;;;;;5057876;28;20400;-73
2022/01/23 07:30:48;;;;;;;76.00;38.97;;;6.50;85.70;;;;;;5046746;28;20393;-74
2022/01/23 07:33:14;;;;;;;78.10;39.50;;;6.50;85.70;;;;;;5050356;28;20759;-73
2022/01/23 07:35:39;;;;;;;81.17;40.40;;;6.50;84.10;;;;;;5054533;28;20425;-74
2022/01/23 07:38:05;;;;;;;80.77;41.37;;;6.50;83.20;;;;;;5052543;28;20869;-74
2022/01/23 07:40:30;;;;;;;75.33;40.57;;;6.40;83.80;;;;;;5036158;28;20394;-73
2022/01/23 07:42:56;;;;;;;82.10;40.57;;;6.50;82.80;;;;;;5048961;28;20396;-73
2022/01/23 07:45:21;;;;;;;76.63;39.43;;;6.50;84.50;;;;;;5059090;28;20419;-73
2022/01/23 07:47:47;;;;;;;73.47;39.78;;;6.70;83.50;;;;;;5048137;28;20467;-74
2022/01/23 07:50:13;;;;;;;75.15;39.55;;;6.60;81.70;;;;;;5052600;28;20404;-73
2022/01/23 07:52:39;;;;;;;70.40;39.50;;;6.50;82.00;;;;;;5054016;28;20451;-74
2022/01/23 07:55:11;;;;;;;77.35;39.83;;;6.50;81.40;;;;;;5054209;28;20808;-74
2022/01/23 07:57:37;;;;;;;77.55;39.95;;;6.40;82.60;;;;;;5061860;28;20433;-73
2022/01/23 08:00:07;;;;;;;73.70;40.70;;;6.50;82.70;;;;;;5034897;28;20946;-75
2022/01/23 08:02:33;;;;;;;75.00;39.67;;;6.50;82.60;;;;;;5069642;28;20436;-74
2022/01/23 08:04:59;;;;;;;70.43;39.33;;;6.60;81.40;;;;;;5067458;28;20474;-73
2022/01/23 08:09:56;;;;;;;80.95;42.78;;;6.60;81.20;;;;;;5056957;28;20764;-75
2022/01/23 08:12:22;;;;;;;79.88;41.25;;;6.50;81.30;;;;;;5044325;28;20872;-75
2022/01/23 08:14:48;;;;;;;74.67;40.73;;;6.50;81.20;;;;;;5058961;28;20495;-75
2022/01/23 08:17:14;;;;;;;76.17;40.40;;;6.50;81.00;;;;;;5073652;28;20443;-75
2022/01/23 08:19:39;;;;;;;73.30;40.00;;;6.50;80.10;;;;;;5059399;28;20412;-75
2022/01/23 08:22:05;;;;;;;79.18;40.13;;;6.60;79.20;;;;;;5071188;28;20385;-75
2022/01/23 08:24:30;;;;;;;77.17;39.90;;;6.50;78.80;;;;;;5066832;28;20442;-76
2022/01/23 08:26:56;;;;;;;80.63;40.43;;;6.60;78.90;;;;;;5065383;28;20468;-72
2022/01/23 08:29:22;;;;;;;80.43;41.60;;;6.60;78.40;;;;;;5053124;28;20486;-74
2022/01/23 08:31:47;;;;;;;76.90;40.27;;;6.60;78.60;;;;;;5047536;28;20405;-72
2022/01/23 08:34:14;;;;;;;71.30;38.20;;;6.60;77.00;;;;;;5052406;28;20397;-72
2022/01/23 08:36:40;;;;;;;84.82;41.65;;;6.70;76.20;;;;;;5052541;28;20512;-72
2022/01/23 08:39:06;;;;;;;74.35;39.90;;;6.70;76.70;;;;;;5051190;28;20476;-72
2022/01/23 08:41:50;;;;;;;75.70;40.38;;;6.70;77.60;;;;;;5040529;28;20907;-72
2022/01/23 08:44:27;;;;;;;80.15;40.38;;;6.70;77.80;;;;;;5057121;28;20456;-73
2022/01/23 08:46:53;;;;;;;78.40;40.30;;;6.80;78.30;;;;;;5049149;28;20387;-72
2022/01/23 08:49:21;;;;;;;74.38;39.80;;;6.80;76.80;;;;;;5044320;28;20382;-73
2022/01/23 08:51:49;;;;;;;75.53;39.28;;;6.90;77.40;;;;;;5052355;28;20397;-74
2022/01/23 08:54:15;;;;;;;70.30;39.10;;;7.10;76.10;;;;;;5052095;28;20408;-73
2022/01/23 08:56:41;;;;;;;73.45;38.05;;;7.30;71.10;;;;;;5057227;28;20409;-73
2022/01/23 08:59:07;;;;;;;78.10;40.75;;;7.30;70.20;;;;;;5046481;28;20389;-73
2022/01/23 09:01:34;;;;;;;71.25;40.05;;;7.30;70.60;;;;;;5054756;28;20400;-73
2022/01/23 09:04:00;;;;;;;72.28;40.60;;;7.40;70.60;;;;;;5039761;28;20387;-72
2022/01/23 09:06:26;;;;;;;72.15;38.92;;;7.30;69.70;;;;;;5052740;28;20917;-73
2022/01/23 09:08:53;;;;;;;73.07;39.45;;;7.30;69.90;;;;;;5053869;28;20393;-74
2022/01/23 09:11:37;;;;;;;82.00;40.97;;;7.40;69.90;;;;;;5045507;28;20397;-74
2022/01/23 09:14:10;;;;;;;73.78;39.97;;;7.50;69.30;;;;;;5052220;28;20379;-73
2022/01/23 09:16:44;;;;;;;82.80;37.33;;;7.80;64.40;;;;;;5031983;28;20897;-74
2022/01/23 09:19:10;;;;;;;73.63;39.22;;;7.90;61.20;;;;;;5020194;28;20425;-75
2022/01/23 09:21:38;;;;;;;74.10;39.13;;;7.70;62.60;;;;;;5051402;28;20897;-74
2022/01/23 09:24:05;;;;;;;71.93;38.70;;;7.60;66.10;;;;;;5027492;28;20391;-74
2022/01/23 09:26:31;;;;;;;78.57;38.58;;;7.80;62.40;;;;;;5014214;28;20903;-74
2022/01/23 09:29:00;;;;;;;70.25;38.15;;;7.70;62.70;;;;;;5035286;28;20387;-75
2022/01/23 09:31:45;;;;;;;72.50;38.13;;;7.80;61.80;;;;;;5053011;28;20393;-76
2022/01/23 09:34:11;;;;;;;68.13;36.97;;;7.60;64.20;;;;;;5056964;28;20439;-74
2022/01/23 09:36:37;;;;;;;73.65;37.90;;;7.70;62.40;;;;;;5055108;28;20417;-74
2022/01/23 09:39:03;;;;;;;71.53;37.13;;;7.70;60.90;;;;;;5056308;28;20396;-75
2022/01/23 09:41:31;;;;;;;69.22;37.03;;;7.80;62.80;;;;;;5043688;28;20393;-73
2022/01/23 09:43:59;;;;;;;70.35;38.53;;;7.60;64.50;;;;;;5039559;28;20399;-73
2022/01/23 09:46:25;;;;;;;73.22;38.05;;;7.50;65.60;;;;;;5032321;28;20397;-73
2022/01/23 09:48:52;;;;;;;74.38;37.00;;;7.40;67.40;;;;;;5044929;28;20402;-74
2022/01/23 09:51:24;;;;;;;80.68;38.15;;;7.40;69.00;;;;;;5057051;28;20399;-74
2022/01/23 09:53:55;;;;;;;75.30;39.00;;;7.60;67.10;;;;;;5058862;28;20389;-74
2022/01/23 09:56:30;;;;;;;76.10;37.90;;;7.70;64.60;;;;;;5033820;28;20431;-75
2022/01/23 09:58:57;;;;;;;80.03;40.10;;;7.90;63.00;;;;;;5056091;28;20385;-74
2022/01/23 10:01:24;;;;;;;79.55;41.17;;;7.80;63.50;;;;;;5050136;28;20896;-74
2022/01/23 10:03:51;;;;;;;83.50;42.40;;;7.80;64.60;;;;;;5059185;28;20400;-74
2022/01/23 10:06:16;;;;;;;75.50;40.42;;;7.70;65.00;;;;;;5048940;28;20391;-74
2022/01/23 10:08:43;;;;;;;82.25;40.50;;;7.60;68.40;;;;;;5061393;28;20431;-78
2022/01/23 10:11:12;;;;;;;71.22;39.90;;;7.80;64.10;;;;;;5036469;28;20453;-75
2022/01/23 10:13:40;;;;;;;81.15;39.90;;;8.10;60.90;;;;;;5068601;28;20448;-74
2022/01/23 10:16:06;;;;;;;72.00;40.08;;;7.90;62.30;;;;;;5056688;28;20417;-76
2022/01/23 10:18:32;;;;;;;73.47;40.20;;;7.80;63.20;;;;;;5048228;28;20405;-74
2022/01/23 10:20:59;;;;;;;83.57;42.10;;;7.70;64.70;;;;;;5048826;28;20389;-77
2022/01/23 10:23:25;;;;;;;80.32;42.05;;;7.70;65.80;;;;;;5044551;28;20458;-77
2022/01/23 10:25:53;;;;;;;83.00;41.65;;;7.70;66.80;;;;;;5044816;28;20455;-73
2022/01/23 10:28:21;;;;;;;79.78;42.33;;;7.70;67.00;;;;;;5029948;28;20721;-75
2022/01/23 10:30:56;;;;;;;86.38;44.05;;;7.70;67.60;;;;;;5048475;28;20408;-76
2022/01/23 10:33:35;;;;;;;88.60;43.35;;;7.70;68.20;;;;;;5044257;28;20401;-75
2022/01/23 10:36:03;;;;;;;90.85;46.28;;;7.60;69.00;;;;;;5043017;28;20425;-73
2022/01/23 10:38:42;;;;;;;87.68;45.45;;;7.60;69.40;;;;;;5044574;28;20883;-75
2022/01/23 10:49:58;;;;;;;89.75;45.25;;;7.60;72.00;;;;;;4977168;28;20415;-73
2022/01/23 10:52:47;;;;;;;93.57;47.00;;;7.60;72.30;;;;;;4958855;28;20414;-74
2022/01/23 10:55:13;;;;;;;89.88;45.05;;;7.60;73.00;;;;;;5037093;28;20994;-73
2022/01/23 10:57:44;;;;;;;99.15;46.72;;;7.60;72.80;;;;;;5054423;28;20429;-74
2022/01/23 11:00:20;;;;;;;100.95;48.58;;;7.60;72.70;;;;;;5059674;28;20382;-73
2022/01/23 11:02:47;;;;;;;92.20;47.20;;;7.60;72.20;;;;;;5052263;28;20414;-74
2022/01/23 11:05:14;;;;;;;99.43;46.35;;;7.70;71.80;;;;;;5053060;28;20488;-74
2022/01/23 11:07:41;;;;;;;88.65;45.83;;;7.90;69.80;;;;;;5052244;28;20401;-75
2022/01/23 11:10:16;;;;;;;105.32;45.97;;;8.10;64.60;;;;;;5050109;28;20504;-75
2022/01/23 11:17:21;;;;;;;87.75;45.20;;;8.10;64.10;;;;;;5030187;28;20527;-74
2022/01/23 11:18:34;;;;;;;81.55;42.72;;;8.10;62.50;;;;;;5072657;28;20390;-74
2022/01/23 11:21:13;;;;;;;92.65;45.15;;;8.30;61.50;;;;;;5057131;28;20386;-74
2022/01/23 11:23:39;;;;;;;93.07;44.33;;;8.50;57.00;;;;;;5047634;28;20473;-74
2022/01/23 11:26:13;;;;;;;91.53;45.17;;;8.30;59.60;;;;;;5061037;28;20498;-74
2022/01/23 11:28:44;;;;;;;99.20;47.40;;;8.30;59.60;;;;;;5066341;28;20393;-74
2022/01/23 11:31:13;;;;;;;95.38;46.13;;;8.50;60.50;;;;;;5042968;28;20402;-74
2022/01/23 11:33:40;;;;;;;95.22;46.08;;;8.60;58.80;;;;;;5032480;28;20428;-74
2022/01/23 11:36:06;;;;;;;86.20;44.78;;;8.60;58.80;;;;;;5052117;28;20477;-76
2022/01/23 11:38:32;;;;;;;95.57;46.67;;;8.70;57.80;;;;;;5037508;28;20425;-74
2022/01/23 11:54:44;;;;;;;96.05;48.75;;;8.60;58.50;;;;;;5035199;28;20478;-75
2022/01/23 11:57:35;;;;;;;96.65;47.40;;;8.60;57.50;;;;;;5043157;28;20465;-75
2022/01/23 12:00:05;;;;;;;104.93;50.17;;;8.70;56.60;;;;;;5045484;28;20477;-75
2022/01/23 12:02:48;;;;;;;104.32;50.60;;;8.60;57.10;;;;;;5053632;28;20398;-74
2022/01/23 12:05:19;;;;;;;99.70;48.95;;;8.60;57.70;;;;;;5055819;28;20385;-75
2022/01/23 12:08:06;;;;;;;100.88;48.78;;;8.60;58.70;;;;;;5048028;28;20405;-75
2022/01/23 12:10:49;;;;;;;99.28;47.55;;;8.60;58.50;;;;;;5036685;28;20403;-75
2022/01/23 12:13:33;;;;;;;97.38;48.30;;;8.60;58.30;;;;;;5036088;28;20394;-75
2022/01/23 12:18:43;;;;;;;100.65;50.95;;;8.80;58.20;;;;;;5064522;28;20400;-74
2022/01/23 12:21:29;;;;;;;96.27;48.60;;;8.80;58.00;;;;;;5069689;28;20369;-74
2022/01/23 12:24:04;;;;;;;96.60;49.17;;;8.70;57.00;;;;;;5072751;28;20373;-74
2022/01/23 12:26:30;;;;;;;102.77;48.77;;;8.60;57.00;;;;;;5056043;28;20431;-73
2022/01/23 12:28:56;;;;;;;102.60;49.35;;;8.60;57.40;;;;;;5053926;28;20882;-78
2022/01/23 12:31:24;;;;;;;104.28;51.85;;;8.60;57.20;;;;;;5047964;28;20401;-74
2022/01/23 12:34:01;;;;;;;104.20;49.33;;;8.60;57.20;;;;;;5046016;28;20398;-73
2022/01/23 12:36:31;;;;;;;103.28;49.65;;;8.50;57.60;;;;;;5051257;28;20428;-73
2022/01/23 12:39:18;;;;;;;103.60;50.00;;;8.50;57.30;;;;;;5045005;28;20474;-74
2022/01/23 12:41:47;;;;;;;100.32;50.05;;;8.50;57.80;;;;;;5041316;28;20390;-74
2022/01/23 12:44:28;;;;;;;103.32;49.30;;;8.50;58.20;;;;;;5043863;28;20489;-74
2022/01/23 12:47:04;;;;;;;94.00;47.20;;;8.50;58.60;;;;;;5052332;28;20591;-74
2022/01/23 12:49:35;;;;;;;99.07;47.58;;;8.50;58.40;;;;;;5037075;28;20429;-73
2022/01/23 12:52:09;;;;;;;101.07;48.60;;;8.50;58.50;;;;;;5040768;28;20445;-74
2022/01/23 12:54:51;;;;;;;99.25;47.85;;;8.40;58.20;;;;;;5035249;28;20433;-74
2022/01/23 12:57:31;;;;;;;96.60;45.42;;;8.40;58.60;;;;;;5052874;28;20918;-74
2022/01/23 12:59:59;;;;;;;93.22;43.63;;;8.50;58.50;;;;;;5035496;28;20406;-75
2022/01/23 13:02:30;;;;;;;88.93;44.08;;;8.60;56.80;;;;;;5061740;28;21049;-74
2022/01/23 13:04:57;;;;;;;87.53;43.17;;;8.50;56.60;;;;;;5063600;28;20390;-73
2022/01/23 13:10:53;;;;;;;101.15;46.13;;;8.70;56.70;;;;;;5063362;28;20409;-74
2022/01/23 13:15:45;;;;;;;88.30;42.25;;;8.50;56.30;;;;;;5033282;28;20425;-74
2022/01/23 13:18:33;;;;;;;87.45;43.00;;;8.50;56.20;;;;;;5025393;28;20407;-73
2022/01/23 13:27:24;;;;;;;87.55;43.47;;;8.40;56.80;;;;;;5041056;28;20414;-73
2022/01/23 13:32:46;;;;;;;83.43;40.35;;;8.50;56.20;;;;;;5042076;28;20759;-74
2022/01/23 13:35:13;;;;;;;97.38;41.38;;;8.50;55.80;;;;;;5050840;28;20408;-74
2022/01/23 13:37:47;;;;;;;83.30;43.00;;;8.50;55.40;;;;;;5045313;28;20516;-75
2022/01/23 13:40:25;;;;;;;87.03;42.28;;;8.40;56.30;;;;;;5049839;28;20434;-74
2022/01/23 14:04:29;;;;;;;87.07;40.28;;;8.50;56.30;;;;;;5040876;28;21035;-75
2022/01/23 14:06:55;;;;;;;82.25;42.03;;;8.40;56.60;;;;;;5052692;28;20882;-75
2022/01/23 14:09:23;;;;;;;77.45;37.90;;;8.40;56.90;;;;;;5056823;28;20393;-75
2022/01/23 14:11:49;;;;;;;86.53;39.83;;;8.40;57.00;;;;;;5046439;28;20406;-73
2022/01/23 14:14:29;;;;;;;80.63;38.85;;;8.50;56.30;;;;;;5058066;28;20509;-76
2022/01/23 14:17:10;;;;;;;82.05;38.50;;;8.40;56.10;;;;;;5052045;28;20409;-76
2022/01/23 14:19:35;;;;;;;84.90;40.30;;;8.40;56.40;;;;;;5048519;28;20860;-74
2022/01/23 14:22:01;;;;;;;79.80;40.00;;;8.40;56.60;;;;;;5033763;28;20409;-74
2022/01/23 14:24:33;;;;;;;78.90;38.77;;;8.40;56.40;;;;;;5043533;28;20868;-75
2022/01/23 14:27:00;;;;;;;77.28;38.70;;;8.40;55.80;;;;;;5035189;28;20406;-75
2022/01/23 14:29:28;;;;;;;77.23;37.30;;;8.40;56.00;;;;;;5045608;28;20528;-75
2022/01/23 14:32:04;;;;;;;70.07;34.88;;;8.40;55.00;;;;;;5050554;28;20381;-75
2022/01/23 14:34:29;;;;;;;71.35;36.33;;;8.30;53.90;;;;;;5049313;28;20762;-75
2022/01/23 14:37:01;;;;;;;77.78;37.85;;;8.30;55.10;;;;;;5016972;28;20418;-75
2022/01/23 14:39:27;;;;;;;72.32;36.25;;;8.20;55.60;;;;;;5045841;28;20382;-76
2022/01/23 14:41:52;;;;;;;79.47;39.08;;;8.30;57.20;;;;;;5049704;28;20462;-76
2022/01/23 14:44:23;;;;;;;81.15;37.40;;;8.30;56.30;;;;;;5048807;28;20398;-76
2022/01/23 14:46:53;;;;;;;72.22;36.38;;;8.30;56.90;;;;;;5050141;28;20525;-76
2022/01/23 14:49:23;;;;;;;81.03;38.88;;;8.20;57.30;;;;;;5031311;28;20521;-76
2022/01/23 14:51:50;;;;;;;85.43;40.00;;;8.20;56.80;;;;;;5033491;28;20424;-75
2022/01/23 14:54:19;;;;;;;83.05;38.03;;;8.20;57.10;;;;;;5049935;28;20758;-76
2022/01/23 14:56:45;;;;;;;77.63;39.35;;;8.10;56.80;;;;;;5055725;28;20409;-75
2022/01/23 14:59:12;;;;;;;77.63;36.23;;;8.10;57.10;;;;;;5054800;28;20397;-75
2022/01/23 15:01:40;;;;;;;72.03;38.45;;;8.10;57.20;;;;;;5056667;28;20389;-75
2022/01/23 15:04:08;;;;;;;73.07;36.90;;;8.10;57.00;;;;;;5046596;28;20822;-75
2022/01/23 15:06:35;;;;;;;80.70;39.08;;;8.10;57.80;;;;;;5059370;28;20385;-77
2022/01/23 15:09:05;;;;;;;78.50;36.13;;;8.00;57.90;;;;;;5054981;28;20480;-75
2022/01/23 15:11:31;;;;;;;71.05;33.80;;;8.00;57.70;;;;;;5055045;28;20381;-74
2022/01/23 15:13:57;;;;;;;76.95;36.03;;;8.00;57.80;;;;;;5050844;28;20462;-74
2022/01/23 15:16:22;;;;;;;67.00;34.83;;;7.90;58.20;;;;;;5054039;28;20518;-76
2022/01/23 15:18:48;;;;;;;73.93;35.33;;;8.00;57.70;;;;;;5052940;28;20401;-77
2022/01/23 15:21:14;;;;;;;64.63;33.10;;;7.90;58.20;;;;;;5055266;28;20386;-75
2022/01/23 15:23:41;;;;;;;56.60;30.57;;;7.90;58.20;;;;;;5052091;28;20458;-75
2022/01/23 15:26:07;;;;;;;64.95;32.30;;;7.90;57.90;;;;;;5054727;28;20385;-74
2022/01/23 15:28:32;;;;;;;61.50;31.88;;;7.80;58.20;;;;;;5054561;28;20396;-75
2022/01/23 15:30:58;;;;;;;59.47;31.95;;;7.80;58.30;;;;;;5045981;28;20445;-74
2022/01/23 15:33:23;;;;;;;63.97;32.13;;;7.80;58.20;;;;;;5051434;28;21748;-75
2022/01/23 15:35:49;;;;;;;67.13;34.63;;;7.80;59.50;;;;;;5048838;28;20882;-74
2022/01/23 15:38:16;;;;;;;56.80;30.17;;;7.70;59.60;;;;;;5054847;28;20378;-73
2022/01/23 15:40:43;;;;;;;56.30;30.33;;;7.70;59.70;;;;;;5052008;28;20425;-77
2022/01/23 15:43:08;;;;;;;61.97;30.65;;;7.70;59.80;;;;;;5036193;28;20837;-77
2022/01/23 15:45:34;;;;;;;57.72;29.90;;;7.70;59.10;;;;;;5039560;28;20490;-74
2022/01/23 15:48:00;;;;;;;58.22;29.63;;;7.60;59.30;;;;;;5049673;28;20492;-74
2022/01/23 15:50:25;;;;;;;54.30;28.77;;;7.60;59.40;;;;;;5053241;28;20409;-74
2022/01/23 15:52:51;;;;;;;60.25;28.80;;;7.50;60.30;;;;;;5047531;28;20403;-75
2022/01/23 15:55:19;;;;;;;59.80;31.00;;;7.50;60.70;;;;;;5034476;28;20432;-75
2022/01/23 15:57:48;;;;;;;57.45;29.77;;;7.50;61.60;;;;;;5031996;28;20399;-74
2022/01/23 16:00:16;;;;;;;62.05;31.33;;;7.40;62.10;;;;;;5023654;28;20388;-75
2022/01/23 16:02:42;;;;;;;59.92;29.88;;;7.40;62.50;;;;;;5056887;28;20377;-75
2022/01/23 16:05:08;;;;;;;59.83;30.00;;;7.40;63.80;;;;;;5047613;28;20816;-73
2022/01/23 16:07:34;;;;;;;67.65;32.20;;;7.30;64.50;;;;;;5051912;28;20432;-75
2022/01/23 16:10:03;;;;;;;64.60;31.00;;;7.30;64.70;;;;;;5051501;28;20399;-75